To NAV CANADA Home Page Login to a new session Search on AWWS site Feedback and Comments Disclaimer Vers la page française équivalente Tips FAQ What's new on the site To the Forecasts and Observations / NOTAM section To "File a Flight Plan" website Publications and other links Update of the User's profile FIC Telephone Numbers My Weather Data Folder Route Weather Data Regional Weather Data Local Weather Data To the Forecasts and Observations / NOTAM section
Request Generated 08/27/2015 at 19:16:54 UTC . Weather information available at that time is displayed.

METAR/TAF

HAY RIVER/MERLYN CARTER AIRPORT/NT    

METAR CYHY 271900Z 19010G16KT 180V250 15SM FEW050 BKN240 22/10 A2953
RMK CU1CI5 CU TR SLP003 DENSITY ALT 1900FT=
METAR CYHY 271800Z 19011G16KT 15SM FEW040 BKN240 20/11 A2955 RMK
CU1CI5 CU TR SLP010 DENSITY ALT 1700FT=
METAR CYHY 271700Z 18011KT 15SM FEW080 BKN240 19/11 A2957 RMK AC1CI6
AC TR SLP018 DENSITY ALT 1400FT=

TAF CYHY 271738Z 2718/2806 19012KT P6SM FEW080 SCT240
BECMG 2802/2804 24008KT
RMK NXT FCST BY 280000Z=
Your time UTC time
Weather data provided by Environment Canada and NAV CANADA